sensor_id;sensor_type;location;lat;lon;timestamp;pressure;altitude;pressure_sealevel;temperature;humidity
57412;BME280;43247;52.828;-8.980;2023-01-10T00:00:27;100557.47;;;4.99;93.90
57412;BME280;43247;52.828;-8.980;2023-01-10T00:01:24;100552.70;;;5.01;93.93
57412;BME280;43247;52.828;-8.980;2023-01-10T00:02:24;100553.08;;;5.01;93.93
57412;BME280;43247;52.828;-8.980;2023-01-10T00:03:24;100554.48;;;5.00;93.95
57412;BME280;43247;52.828;-8.980;2023-01-10T00:04:25;100554.41;;;5.01;93.86
57412;BME280;43247;52.828;-8.980;2023-01-10T00:05:25;100551.44;;;4.97;94.03
57412;BME280;43247;52.828;-8.980;2023-01-10T00:06:25;100550.13;;;5.01;93.96
57412;BME280;43247;52.828;-8.980;2023-01-10T00:07:26;100545.36;;;5.01;93.90
57412;BME280;43247;52.828;-8.980;2023-01-10T00:08:26;100540.09;;;4.98;94.05
57412;BME280;43247;52.828;-8.980;2023-01-10T00:09:26;100533.07;;;4.99;93.99
57412;BME280;43247;52.828;-8.980;2023-01-10T00:10:27;100529.78;;;4.95;94.16
57412;BME280;43247;52.828;-8.980;2023-01-10T00:11:26;100527.40;;;4.97;94.05
57412;BME280;43247;52.828;-8.980;2023-01-10T00:12:27;100525.10;;;4.95;94.15
57412;BME280;43247;52.828;-8.980;2023-01-10T00:13:28;100522.96;;;4.95;94.20
57412;BME280;43247;52.828;-8.980;2023-01-10T00:14:28;100519.93;;;4.96;94.23
57412;BME280;43247;52.828;-8.980;2023-01-10T00:15:30;100516.88;;;4.95;94.22
57412;BME280;43247;52.828;-8.980;2023-01-10T00:16:28;100515.18;;;4.98;94.18
57412;BME280;43247;52.828;-8.980;2023-01-10T00:17:28;100513.59;;;4.94;94.29
57412;BME280;43247;52.828;-8.980;2023-01-10T00:18:28;100507.70;;;4.94;94.31
57412;BME280;43247;52.828;-8.980;2023-01-10T00:19:29;100502.42;;;4.94;94.30
57412;BME280;43247;52.828;-8.980;2023-01-10T00:20:29;100498.28;;;4.92;94.41
57412;BME280;43247;52.828;-8.980;2023-01-10T00:21:29;100495.92;;;4.92;94.41
57412;BME280;43247;52.828;-8.980;2023-01-10T00:22:29;100492.61;;;4.96;94.28
57412;BME280;43247;52.828;-8.980;2023-01-10T00:23:29;100484.32;;;4.94;94.37
57412;BME280;43247;52.828;-8.980;2023-01-10T00:24:30;100478.71;;;4.96;94.32
57412;BME280;43247;52.828;-8.980;2023-01-10T00:25:30;100468.07;;;4.96;94.33
57412;BME280;43247;52.828;-8.980;2023-01-10T00:26:30;100462.37;;;4.93;94.43
57412;BME280;43247;52.828;-8.980;2023-01-10T00:27:31;100456.08;;;4.94;94.38
57412;BME280;43247;52.828;-8.980;2023-01-10T00:28:31;100453.68;;;4.94;94.40
57412;BME280;43247;52.828;-8.980;2023-01-10T00:29:31;100445.91;;;4.94;94.47
57412;BME280;43247;52.828;-8.980;2023-01-10T00:30:31;100441.05;;;4.94;94.41
57412;BME280;43247;52.828;-8.980;2023-01-10T00:31:32;100438.32;;;4.94;94.40
57412;BME280;43247;52.828;-8.980;2023-01-10T00:32:32;100430.58;;;4.93;94.51
57412;BME280;43247;52.828;-8.980;2023-01-10T00:33:33;100424.77;;;4.93;94.56
57412;BME280;43247;52.828;-8.980;2023-01-10T00:34:33;100422.80;;;4.93;94.61
57412;BME280;43247;52.828;-8.980;2023-01-10T00:35:33;100414.55;;;4.95;94.51
57412;BME280;43247;52.828;-8.980;2023-01-10T00:36:34;100407.86;;;4.92;94.63
57412;BME280;43247;52.828;-8.980;2023-01-10T00:37:34;100408.35;;;4.92;94.67
57412;BME280;43247;52.828;-8.980;2023-01-10T00:38:34;100395.87;;;4.97;94.45
57412;BME280;43247;52.828;-8.980;2023-01-10T00:39:34;100388.14;;;4.95;94.56
57412;BME280;43247;52.828;-8.980;2023-01-10T00:40:35;100380.71;;;4.94;94.62
57412;BME280;43247;52.828;-8.980;2023-01-10T00:41:35;100378.13;;;4.95;94.59
57412;BME280;43247;52.828;-8.980;2023-01-10T00:42:36;100372.95;;;4.96;94.54
57412;BME280;43247;52.828;-8.980;2023-01-10T00:43:36;100360.23;;;4.96;94.60
57412;BME280;43247;52.828;-8.980;2023-01-10T00:44:37;100355.58;;;4.94;94.67
57412;BME280;43247;52.828;-8.980;2023-01-10T00:45:37;100353.32;;;4.93;94.72
57412;BME280;43247;52.828;-8.980;2023-01-10T00:46:37;100346.84;;;4.92;94.76
57412;BME280;43247;52.828;-8.980;2023-01-10T00:47:37;100339.85;;;4.95;94.74
57412;BME280;43247;52.828;-8.980;2023-01-10T00:48:38;100334.34;;;4.97;94.64
57412;BME280;43247;52.828;-8.980;2023-01-10T00:49:38;100328.74;;;5.00;94.60
57412;BME280;43247;52.828;-8.980;2023-01-10T00:50:38;100325.31;;;4.93;94.83
57412;BME280;43247;52.828;-8.980;2023-01-10T00:51:39;100315.69;;;4.95;94.78
57412;BME280;43247;52.828;-8.980;2023-01-10T00:52:40;100312.08;;;4.97;94.65
57412;BME280;43247;52.828;-8.980;2023-01-10T00:53:40;100306.23;;;4.94;94.81
57412;BME280;43247;52.828;-8.980;2023-01-10T00:54:40;100303.11;;;4.97;94.76
57412;BME280;43247;52.828;-8.980;2023-01-10T00:55:40;100298.63;;;4.93;94.95
57412;BME280;43247;52.828;-8.980;2023-01-10T00:56:40;100299.05;;;4.92;95.03
57412;BME280;43247;52.828;-8.980;2023-01-10T00:57:41;100291.19;;;4.93;94.98
57412;BME280;43247;52.828;-8.980;2023-01-10T00:58:41;100282.35;;;4.94;94.91
57412;BME280;43247;52.828;-8.980;2023-01-10T00:59:41;100285.84;;;4.94;94.96
57412;BME280;43247;52.828;-8.980;2023-01-10T01:00:42;100283.20;;;4.95;94.97
57412;BME280;43247;52.828;-8.980;2023-01-10T01:01:41;100289.07;;;4.97;94.90
57412;BME280;43247;52.828;-8.980;2023-01-10T01:02:42;100288.44;;;4.96;94.95
57412;BME280;43247;52.828;-8.980;2023-01-10T01:03:42;100276.44;;;4.95;95.04
57412;BME280;43247;52.828;-8.980;2023-01-10T01:04:43;100268.63;;;4.96;94.93
57412;BME280;43247;52.828;-8.980;2023-01-10T01:05:44;100256.18;;;4.94;95.04
57412;BME280;43247;52.828;-8.980;2023-01-10T01:06:43;100254.77;;;4.95;95.07
57412;BME280;43247;52.828;-8.980;2023-01-10T01:07:46;100250.02;;;4.93;95.14
57412;BME280;43247;52.828;-8.980;2023-01-10T01:08:44;100254.28;;;4.95;95.11
57412;BME280;43247;52.828;-8.980;2023-01-10T01:09:45;100254.52;;;4.96;95.09
57412;BME280;43247;52.828;-8.980;2023-01-10T01:10:45;100247.82;;;4.96;95.07
57412;BME280;43247;52.828;-8.980;2023-01-10T01:11:45;100250.20;;;4.97;95.02
57412;BME280;43247;52.828;-8.980;2023-01-10T01:12:45;100244.67;;;4.97;95.03
57412;BME280;43247;52.828;-8.980;2023-01-10T01:13:46;100238.67;;;4.95;95.11
57412;BME280;43247;52.828;-8.980;2023-01-10T01:14:46;100240.50;;;4.96;95.14
57412;BME280;43247;52.828;-8.980;2023-01-10T01:15:46;100227.57;;;5.01;95.04
57412;BME280;43247;52.828;-8.980;2023-01-10T01:16:46;100227.54;;;4.95;95.20
57412;BME280;43247;52.828;-8.980;2023-01-10T01:17:47;100220.42;;;4.95;95.23
57412;BME280;43247;52.828;-8.980;2023-01-10T01:18:46;100214.17;;;4.97;95.14
57412;BME280;43247;52.828;-8.980;2023-01-10T01:19:47;100207.94;;;4.96;95.24
57412;BME280;43247;52.828;-8.980;2023-01-10T01:20:51;100198.28;;;4.99;95.12
57412;BME280;43247;52.828;-8.980;2023-01-10T01:21:47;100195.11;;;4.98;95.23
57412;BME280;43247;52.828;-8.980;2023-01-10T01:22:47;100190.86;;;4.97;95.25
57412;BME280;43247;52.828;-8.980;2023-01-10T01:23:47;100184.02;;;4.97;95.27
57412;BME280;43247;52.828;-8.980;2023-01-10T01:24:48;100178.28;;;4.97;95.33
57412;BME280;43247;52.828;-8.980;2023-01-10T01:25:49;100173.88;;;4.98;95.28
57412;BME280;43247;52.828;-8.980;2023-01-10T01:26:48;100168.90;;;4.99;95.27
57412;BME280;43247;52.828;-8.980;2023-01-10T01:27:48;100165.59;;;4.99;95.25
57412;BME280;43247;52.828;-8.980;2023-01-10T01:28:49;100162.76;;;5.01;95.21
57412;BME280;43247;52.828;-8.980;2023-01-10T01:29:48;100154.86;;;5.03;95.20
57412;BME280;43247;52.828;-8.980;2023-01-10T01:30:49;100152.61;;;4.97;95.38
57412;BME280;43247;52.828;-8.980;2023-01-10T01:31:49;100149.05;;;4.98;95.45
57412;BME280;43247;52.828;-8.980;2023-01-10T01:32:49;100149.72;;;4.98;95.39
57412;BME280;43247;52.828;-8.980;2023-01-10T01:33:50;100141.96;;;5.02;95.28
57412;BME280;43247;52.828;-8.980;2023-01-10T01:34:50;100142.99;;;5.00;95.30
57412;BME280;43247;52.828;-8.980;2023-01-10T01:35:50;100141.86;;;5.02;95.29
57412;BME280;43247;52.828;-8.980;2023-01-10T01:36:50;100135.63;;;5.02;95.37
57412;BME280;43247;52.828;-8.980;2023-01-10T01:37:51;100132.43;;;5.02;95.37
57412;BME280;43247;52.828;-8.980;2023-01-10T01:38:51;100137.67;;;5.01;95.45
57412;BME280;43247;52.828;-8.980;2023-01-10T01:39:51;100135.07;;;5.02;95.42
57412;BME280;43247;52.828;-8.980;2023-01-10T01:40:51;100135.67;;;5.03;95.37
57412;BME280;43247;52.828;-8.980;2023-01-10T01:41:51;100136.85;;;5.04;95.28
57412;BME280;43247;52.828;-8.980;2023-01-10T01:42:52;100139.11;;;5.01;95.46
57412;BME280;43247;52.828;-8.980;2023-01-10T01:43:58;100131.14;;;5.02;95.46
57412;BME280;43247;52.828;-8.980;2023-01-10T01:45:53;100128.70;;;5.02;95.56
57412;BME280;43247;52.828;-8.980;2023-01-10T01:47:00;100119.64;;;5.04;95.55
57412;BME280;43247;52.828;-8.980;2023-01-10T01:47:57;100111.91;;;5.02;95.61
57412;BME280;43247;52.828;-8.980;2023-01-10T01:48:53;100111.86;;;5.04;95.47
57412;BME280;43247;52.828;-8.980;2023-01-10T01:49:54;100097.47;;;5.04;95.51
57412;BME280;43247;52.828;-8.980;2023-01-10T01:50:58;100090.85;;;5.07;95.44
57412;BME280;43247;52.828;-8.980;2023-01-10T01:51:58;100090.26;;;5.03;95.66
57412;BME280;43247;52.828;-8.980;2023-01-10T01:52:56;100084.82;;;5.03;95.76
57412;BME280;43247;52.828;-8.980;2023-01-10T01:53:57;100077.07;;;5.01;95.81
57412;BME280;43247;52.828;-8.980;2023-01-10T01:54:57;100078.26;;;5.00;95.89
57412;BME280;43247;52.828;-8.980;2023-01-10T01:55:58;100070.59;;;5.04;95.74
57412;BME280;43247;52.828;-8.980;2023-01-10T01:56:59;100065.40;;;5.06;95.70
57412;BME280;43247;52.828;-8.980;2023-01-10T01:57:57;100062.36;;;5.06;95.78
57412;BME280;43247;52.828;-8.980;2023-01-10T01:58:57;100062.87;;;5.08;95.69
57412;BME280;43247;52.828;-8.980;2023-01-10T01:59:55;100058.36;;;5.06;95.74
57412;BME280;43247;52.828;-8.980;2023-01-10T02:00:56;100056.66;;;5.08;95.68
57412;BME280;43247;52.828;-8.980;2023-01-10T02:01:59;100052.92;;;5.07;95.77
57412;BME280;43247;52.828;-8.980;2023-01-10T02:02:57;100048.10;;;5.08;95.73
57412;BME280;43247;52.828;-8.980;2023-01-10T02:04:00;100044.89;;;5.10;95.76
57412;BME280;43247;52.828;-8.980;2023-01-10T02:05:57;100034.12;;;5.05;95.98
57412;BME280;43247;52.828;-8.980;2023-01-10T02:06:57;100035.76;;;5.13;95.71
57412;BME280;43247;52.828;-8.980;2023-01-10T02:07:59;100032.41;;;5.15;95.70
57412;BME280;43247;52.828;-8.980;2023-01-10T02:09:03;100030.59;;;5.13;95.85
57412;BME280;43247;52.828;-8.980;2023-01-10T02:10:01;100030.37;;;5.10;96.06
57412;BME280;43247;52.828;-8.980;2023-01-10T02:11:02;100024.64;;;5.11;96.06
57412;BME280;43247;52.828;-8.980;2023-01-10T02:11:58;100024.22;;;5.12;96.07
57412;BME280;43247;52.828;-8.980;2023-01-10T02:13:02;100012.79;;;5.12;96.08
57412;BME280;43247;52.828;-8.980;2023-01-10T02:13:59;100002.68;;;5.13;96.07
57412;BME280;43247;52.828;-8.980;2023-01-10T02:14:59;100000.06;;;5.15;95.99
57412;BME280;43247;52.828;-8.980;2023-01-10T02:15:59;100000.01;;;5.13;96.05
57412;BME280;43247;52.828;-8.980;2023-01-10T02:16:59;100001.57;;;5.15;96.04
57412;BME280;43247;52.828;-8.980;2023-01-10T02:18:00;99998.01;;;5.14;96.17
57412;BME280;43247;52.828;-8.980;2023-01-10T02:18:59;99997.52;;;5.14;96.20
57412;BME280;43247;52.828;-8.980;2023-01-10T02:20:02;99996.20;;;5.14;96.18
57412;BME280;43247;52.828;-8.980;2023-01-10T02:21:12;99987.79;;;5.17;96.13
57412;BME280;43247;52.828;-8.980;2023-01-10T02:26:15;99966.84;;;5.18;96.19
57412;BME280;43247;52.828;-8.980;2023-01-10T02:27:12;99964.53;;;5.19;96.33
57412;BME280;43247;52.828;-8.980;2023-01-10T02:31:11;99956.67;;;5.21;96.33
57412;BME280;43247;52.828;-8.980;2023-01-10T02:32:10;99951.73;;;5.22;96.25
57412;BME280;43247;52.828;-8.980;2023-01-10T02:33:06;99948.23;;;5.25;96.33
57412;BME280;43247;52.828;-8.980;2023-01-10T02:34:06;99946.56;;;5.22;96.46
57412;BME280;43247;52.828;-8.980;2023-01-10T02:35:14;99941.65;;;5.22;96.62
57412;BME280;43247;52.828;-8.980;2023-01-10T02:36:13;99940.34;;;5.22;96.51
57412;BME280;43247;52.828;-8.980;2023-01-10T02:37:07;99938.88;;;5.22;96.46
57412;BME280;43247;52.828;-8.980;2023-01-10T02:38:10;99940.56;;;5.25;96.37
57412;BME280;43247;52.828;-8.980;2023-01-10T02:39:07;99941.59;;;5.27;96.46
57412;BME280;43247;52.828;-8.980;2023-01-10T02:40:07;99936.70;;;5.27;96.45
57412;BME280;43247;52.828;-8.980;2023-01-10T02:41:11;99937.60;;;5.27;96.52
57412;BME280;43247;52.828;-8.980;2023-01-10T02:42:06;99942.00;;;5.27;96.50
57412;BME280;43247;52.828;-8.980;2023-01-10T02:43:07;99938.42;;;5.30;96.34
57412;BME280;43247;52.828;-8.980;2023-01-10T02:44:07;99930.97;;;5.27;96.60
57412;BME280;43247;52.828;-8.980;2023-01-10T02:45:08;99928.70;;;5.30;96.58
57412;BME280;43247;52.828;-8.980;2023-01-10T02:46:07;99923.38;;;5.29;96.69
57412;BME280;43247;52.828;-8.980;2023-01-10T02:47:07;99915.12;;;5.32;96.55
57412;BME280;43247;52.828;-8.980;2023-01-10T02:48:05;99916.96;;;5.32;96.60
57412;BME280;43247;52.828;-8.980;2023-01-10T02:49:05;99910.55;;;5.31;96.74
57412;BME280;43247;52.828;-8.980;2023-01-10T02:51:11;99903.15;;;5.35;96.70
57412;BME280;43247;52.828;-8.980;2023-01-10T02:52:05;99897.19;;;5.34;96.78
57412;BME280;43247;52.828;-8.980;2023-01-10T02:53:09;99889.68;;;5.35;96.68
57412;BME280;43247;52.828;-8.980;2023-01-10T02:54:09;99882.39;;;5.37;96.73
57412;BME280;43247;52.828;-8.980;2023-01-10T02:55:06;99876.13;;;5.37;96.79
57412;BME280;43247;52.828;-8.980;2023-01-10T02:56:14;99875.67;;;5.39;96.83
57412;BME280;43247;52.828;-8.980;2023-01-10T02:57:23;99874.07;;;5.40;96.79
57412;BME280;43247;52.828;-8.980;2023-01-10T02:58:14;99874.40;;;5.40;96.84
57412;BME280;43247;52.828;-8.980;2023-01-10T02:59:23;99871.00;;;5.41;96.81
57412;BME280;43247;52.828;-8.980;2023-01-10T03:00:16;99873.33;;;5.41;96.92
57412;BME280;43247;52.828;-8.980;2023-01-10T03:01:14;99872.38;;;5.41;96.83
57412;BME280;43247;52.828;-8.980;2023-01-10T03:02:13;99869.30;;;5.42;96.83
57412;BME280;43247;52.828;-8.980;2023-01-10T03:03:14;99867.49;;;5.44;96.86
57412;BME280;43247;52.828;-8.980;2023-01-10T03:04:13;99868.62;;;5.43;96.89
57412;BME280;43247;52.828;-8.980;2023-01-10T03:05:15;99855.62;;;5.43;96.91
57412;BME280;43247;52.828;-8.980;2023-01-10T03:06:18;99847.58;;;5.46;96.82
57412;BME280;43247;52.828;-8.980;2023-01-10T03:07:15;99847.39;;;5.46;96.77
57412;BME280;43247;52.828;-8.980;2023-01-10T03:08:17;99843.12;;;5.45;96.93
57412;BME280;43247;52.828;-8.980;2023-01-10T03:09:14;99837.79;;;5.46;96.98
57412;BME280;43247;52.828;-8.980;2023-01-10T03:10:15;99838.72;;;5.49;96.77
57412;BME280;43247;52.828;-8.980;2023-01-10T03:11:10;99834.80;;;5.50;96.97
57412;BME280;43247;52.828;-8.980;2023-01-10T03:12:13;99828.66;;;5.49;96.98
57412;BME280;43247;52.828;-8.980;2023-01-10T03:13:12;99823.55;;;5.50;97.02
57412;BME280;43247;52.828;-8.980;2023-01-10T03:14:15;99823.70;;;5.52;96.98
57412;BME280;43247;52.828;-8.980;2023-01-10T03:15:12;99819.95;;;5.53;96.88
57412;BME280;43247;52.828;-8.980;2023-01-10T03:16:12;99822.37;;;5.53;96.85
57412;BME280;43247;52.828;-8.980;2023-01-10T03:17:11;99815.58;;;5.53;96.80
57412;BME280;43247;52.828;-8.980;2023-01-10T03:18:15;99817.17;;;5.52;96.97
57412;BME280;43247;52.828;-8.980;2023-01-10T03:19:13;99810.33;;;5.50;96.90
57412;BME280;43247;52.828;-8.980;2023-01-10T03:20:12;99806.82;;;5.54;96.95
57412;BME280;43247;52.828;-8.980;2023-01-10T03:21:12;99802.61;;;5.57;96.76
57412;BME280;43247;52.828;-8.980;2023-01-10T03:22:12;99802.67;;;5.55;96.92
57412;BME280;43247;52.828;-8.980;2023-01-10T03:23:14;99802.52;;;5.55;96.97
57412;BME280;43247;52.828;-8.980;2023-01-10T03:24:16;99796.48;;;5.55;97.01
57412;BME280;43247;52.828;-8.980;2023-01-10T03:25:14;99784.10;;;5.56;96.92
57412;BME280;43247;52.828;-8.980;2023-01-10T03:26:12;99785.16;;;5.56;96.90
57412;BME280;43247;52.828;-8.980;2023-01-10T03:27:15;99776.83;;;5.57;96.79
57412;BME280;43247;52.828;-8.980;2023-01-10T03:28:16;99774.13;;;5.59;96.71
57412;BME280;43247;52.828;-8.980;2023-01-10T03:29:15;99777.84;;;5.61;96.80
57412;BME280;43247;52.828;-8.980;2023-01-10T03:30:18;99774.23;;;5.60;96.75
57412;BME280;43247;52.828;-8.980;2023-01-10T03:31:15;99765.87;;;5.59;96.80
57412;BME280;43247;52.828;-8.980;2023-01-10T03:32:14;99772.26;;;5.63;96.69
57412;BME280;43247;52.828;-8.980;2023-01-10T03:33:15;99775.88;;;5.61;96.62
57412;BME280;43247;52.828;-8.980;2023-01-10T03:34:13;99776.39;;;5.62;96.62
57412;BME280;43247;52.828;-8.980;2023-01-10T03:35:14;99770.94;;;5.62;96.54
57412;BME280;43247;52.828;-8.980;2023-01-10T03:36:23;99767.20;;;5.60;96.58
57412;BME280;43247;52.828;-8.980;2023-01-10T03:37:18;99759.87;;;5.61;96.54
57412;BME280;43247;52.828;-8.980;2023-01-10T03:38:20;99756.31;;;5.64;96.59
57412;BME280;43247;52.828;-8.980;2023-01-10T03:39:19;99756.41;;;5.65;96.69
57412;BME280;43247;52.828;-8.980;2023-01-10T03:40:18;99755.91;;;5.65;96.70
57412;BME280;43247;52.828;-8.980;2023-01-10T03:41:20;99749.11;;;5.65;96.58
57412;BME280;43247;52.828;-8.980;2023-01-10T03:42:20;99750.91;;;5.63;96.64
57412;BME280;43247;52.828;-8.980;2023-01-10T03:43:18;99749.30;;;5.66;96.55
57412;BME280;43247;52.828;-8.980;2023-01-10T03:44:17;99739.82;;;5.66;96.50
57412;BME280;43247;52.828;-8.980;2023-01-10T03:45:22;99735.82;;;5.67;96.53
57412;BME280;43247;52.828;-8.980;2023-01-10T03:46:22;99733.13;;;5.66;96.60
57412;BME280;43247;52.828;-8.980;2023-01-10T03:47:23;99729.94;;;5.66;96.62
57412;BME280;43247;52.828;-8.980;2023-01-10T03:48:17;99725.43;;;5.67;96.63
57412;BME280;43247;52.828;-8.980;2023-01-10T03:49:17;99714.94;;;5.71;96.48
57412;BME280;43247;52.828;-8.980;2023-01-10T03:50:18;99714.81;;;5.73;96.45
57412;BME280;43247;52.828;-8.980;2023-01-10T03:51:18;99720.66;;;5.73;96.54
57412;BME280;43247;52.828;-8.980;2023-01-10T03:52:18;99719.90;;;5.71;96.64
57412;BME280;43247;52.828;-8.980;2023-01-10T03:53:17;99724.75;;;5.72;96.61
57412;BME280;43247;52.828;-8.980;2023-01-10T03:54:17;99717.76;;;5.73;96.62
57412;BME280;43247;52.828;-8.980;2023-01-10T03:55:20;99719.55;;;5.74;96.66
57412;BME280;43247;52.828;-8.980;2023-01-10T03:56:17;99711.86;;;5.72;96.73
57412;BME280;43247;52.828;-8.980;2023-01-10T03:57:20;99703.61;;;5.74;96.72
57412;BME280;43247;52.828;-8.980;2023-01-10T03:58:18;99701.76;;;5.74;96.75
57412;BME280;43247;52.828;-8.980;2023-01-10T03:59:20;99698.53;;;5.75;96.78
57412;BME280;43247;52.828;-8.980;2023-01-10T04:00:19;99701.71;;;5.76;96.79
57412;BME280;43247;52.828;-8.980;2023-01-10T04:01:18;99693.85;;;5.76;96.76
57412;BME280;43247;52.828;-8.980;2023-01-10T04:02:19;99690.91;;;5.75;96.90
57412;BME280;43247;52.828;-8.980;2023-01-10T04:03:19;99692.61;;;5.76;96.86
57412;BME280;43247;52.828;-8.980;2023-01-10T04:04:19;99694.09;;;5.76;96.94
57412;BME280;43247;52.828;-8.980;2023-01-10T04:05:19;99693.28;;;5.77;96.97
57412;BME280;43247;52.828;-8.980;2023-01-10T04:06:19;99692.37;;;5.76;96.97
57412;BME280;43247;52.828;-8.980;2023-01-10T04:07:21;99691.94;;;5.77;97.00
57412;BME280;43247;52.828;-8.980;2023-01-10T04:08:20;99685.02;;;5.77;97.02
57412;BME280;43247;52.828;-8.980;2023-01-10T04:09:20;99679.25;;;5.78;97.03
57412;BME280;43247;52.828;-8.980;2023-01-10T04:10:20;99677.05;;;5.81;96.95
57412;BME280;43247;52.828;-8.980;2023-01-10T04:11:20;99676.98;;;5.79;97.07
57412;BME280;43247;52.828;-8.980;2023-01-10T04:12:20;99670.57;;;5.82;97.03
57412;BME280;43247;52.828;-8.980;2023-01-10T04:13:21;99665.06;;;5.82;97.14
57412;BME280;43247;52.828;-8.980;2023-01-10T04:14:21;99667.41;;;5.82;97.10
57412;BME280;43247;52.828;-8.980;2023-01-10T04:15:21;99658.92;;;5.81;97.25
57412;BME280;43247;52.828;-8.980;2023-01-10T04:16:21;99653.20;;;5.83;97.20
57412;BME280;43247;52.828;-8.980;2023-01-10T04:17:21;99653.55;;;5.85;97.18
57412;BME280;43247;52.828;-8.980;2023-01-10T04:18:22;99650.78;;;5.88;97.08
57412;BME280;43247;52.828;-8.980;2023-01-10T04:19:22;99643.45;;;5.87;97.18
57412;BME280;43247;52.828;-8.980;2023-01-10T04:20:23;99638.84;;;5.88;97.24
57412;BME280;43247;52.828;-8.980;2023-01-10T04:21:22;99634.45;;;5.86;97.31
57412;BME280;43247;52.828;-8.980;2023-01-10T04:22:22;99638.34;;;5.85;97.39
57412;BME280;43247;52.828;-8.980;2023-01-10T04:23:22;99631.60;;;5.85;97.41
57412;BME280;43247;52.828;-8.980;2023-01-10T04:24:23;99630.52;;;5.87;97.37
57412;BME280;43247;52.828;-8.980;2023-01-10T04:25:23;99627.95;;;5.88;97.34
57412;BME280;43247;52.828;-8.980;2023-01-10T04:26:23;99627.79;;;5.88;97.45
57412;BME280;43247;52.828;-8.980;2023-01-10T04:27:23;99627.98;;;5.88;97.48
57412;BME280;43247;52.828;-8.980;2023-01-10T04:28:23;99630.12;;;5.91;97.41
57412;BME280;43247;52.828;-8.980;2023-01-10T04:29:24;99631.26;;;5.91;97.53
57412;BME280;43247;52.828;-8.980;2023-01-10T04:30:24;99628.54;;;5.93;97.47
57412;BME280;43247;52.828;-8.980;2023-01-10T04:31:24;99626.09;;;5.94;97.49
57412;BME280;43247;52.828;-8.980;2023-01-10T04:32:24;99621.30;;;5.93;97.57
57412;BME280;43247;52.828;-8.980;2023-01-10T04:33:24;99620.48;;;5.94;97.57
57412;BME280;43247;52.828;-8.980;2023-01-10T04:34:24;99613.74;;;5.96;97.60
57412;BME280;43247;52.828;-8.980;2023-01-10T04:35:25;99612.16;;;5.93;97.76
57412;BME280;43247;52.828;-8.980;2023-01-10T04:36:25;99610.28;;;5.94;97.73
57412;BME280;43247;52.828;-8.980;2023-01-10T04:37:25;99606.83;;;5.95;97.70
57412;BME280;43247;52.828;-8.980;2023-01-10T04:38:25;99599.90;;;5.94;97.66
57412;BME280;43247;52.828;-8.980;2023-01-10T04:39:25;99604.10;;;5.95;97.74
57412;BME280;43247;52.828;-8.980;2023-01-10T04:40:26;99596.40;;;5.96;97.70
57412;BME280;43247;52.828;-8.980;2023-01-10T04:41:26;99594.61;;;5.97;97.72
57412;BME280;43247;52.828;-8.980;2023-01-10T04:42:26;99596.16;;;5.98;97.77
57412;BME280;43247;52.828;-8.980;2023-01-10T04:43:27;99593.75;;;5.97;97.84
57412;BME280;43247;52.828;-8.980;2023-01-10T04:44:27;99591.88;;;5.98;97.86
57412;BME280;43247;52.828;-8.980;2023-01-10T04:45:27;99590.58;;;5.98;97.87
57412;BME280;43247;52.828;-8.980;2023-01-10T04:46:27;99585.85;;;5.99;97.87
57412;BME280;43247;52.828;-8.980;2023-01-10T04:47:28;99589.19;;;5.99;97.93
57412;BME280;43247;52.828;-8.980;2023-01-10T04:48:28;99589.51;;;6.00;97.93
57412;BME280;43247;52.828;-8.980;2023-01-10T04:49:28;99586.47;;;6.00;98.00
57412;BME280;43247;52.828;-8.980;2023-01-10T04:50:28;99589.52;;;6.00;97.98
57412;BME280;43247;52.828;-8.980;2023-01-10T04:51:28;99586.61;;;6.02;97.96
57412;BME280;43247;52.828;-8.980;2023-01-10T04:52:28;99583.84;;;6.01;98.05
57412;BME280;43247;52.828;-8.980;2023-01-10T04:53:29;99585.26;;;6.03;98.00
57412;BME280;43247;52.828;-8.980;2023-01-10T04:54:29;99585.92;;;6.03;97.99
57412;BME280;43247;52.828;-8.980;2023-01-10T04:55:30;99580.88;;;6.06;97.94
57412;BME280;43247;52.828;-8.980;2023-01-10T04:56:29;99576.34;;;6.06;97.95
57412;BME280;43247;52.828;-8.980;2023-01-10T04:57:29;99578.03;;;6.07;98.02
57412;BME280;43247;52.828;-8.980;2023-01-10T04:58:32;99574.91;;;6.06;98.02
57412;BME280;43247;52.828;-8.980;2023-01-10T04:59:30;99570.74;;;6.10;97.98
57412;BME280;43247;52.828;-8.980;2023-01-10T05:00:30;99574.91;;;6.11;97.97
57412;BME280;43247;52.828;-8.980;2023-01-10T05:01:30;99568.95;;;6.09;98.10
57412;BME280;43247;52.828;-8.980;2023-01-10T05:02:30;99566.22;;;6.10;98.11
57412;BME280;43247;52.828;-8.980;2023-01-10T05:03:31;99571.39;;;6.12;98.03
57412;BME280;43247;52.828;-8.980;2023-01-10T05:04:31;99565.85;;;6.12;98.05
57412;BME280;43247;52.828;-8.980;2023-01-10T05:05:31;99565.73;;;6.12;98.08
57412;BME280;43247;52.828;-8.980;2023-01-10T05:06:32;99564.58;;;6.12;98.17
57412;BME280;43247;52.828;-8.980;2023-01-10T05:07:31;99568.77;;;6.15;98.04
57412;BME280;43247;52.828;-8.980;2023-01-10T05:08:32;99566.94;;;6.15;98.09
57412;BME280;43247;52.828;-8.980;2023-01-10T05:09:32;99565.09;;;6.17;98.02
57412;BME280;43247;52.828;-8.980;2023-01-10T05:10:32;99559.93;;;6.17;98.04
57412;BME280;43247;52.828;-8.980;2023-01-10T05:11:32;99557.28;;;6.17;98.08
57412;BME280;43247;52.828;-8.980;2023-01-10T05:12:33;99554.80;;;6.20;98.00
57412;BME280;43247;52.828;-8.980;2023-01-10T05:13:32;99550.90;;;6.19;98.00
57412;BME280;43247;52.828;-8.980;2023-01-10T05:14:33;99546.09;;;6.21;98.04
57412;BME280;43247;52.828;-8.980;2023-01-10T05:15:33;99547.80;;;6.19;98.14
57412;BME280;43247;52.828;-8.980;2023-01-10T05:16:33;99551.16;;;6.19;98.08
57412;BME280;43247;52.828;-8.980;2023-01-10T05:17:33;99549.60;;;6.20;98.16
57412;BME280;43247;52.828;-8.980;2023-01-10T05:18:33;99547.69;;;6.20;98.22
57412;BME280;43247;52.828;-8.980;2023-01-10T05:19:33;99546.96;;;6.21;98.21
57412;BME280;43247;52.828;-8.980;2023-01-10T05:20:34;99546.28;;;6.23;98.17
57412;BME280;43247;52.828;-8.980;2023-01-10T05:21:34;99544.25;;;6.25;98.10
57412;BME280;43247;52.828;-8.980;2023-01-10T05:22:34;99544.44;;;6.26;98.03
57412;BME280;43247;52.828;-8.980;2023-01-10T05:23:34;99543.65;;;6.26;98.09
57412;BME280;43247;52.828;-8.980;2023-01-10T05:24:34;99541.14;;;6.26;98.15
57412;BME280;43247;52.828;-8.980;2023-01-10T05:25:35;99541.68;;;6.26;98.16
57412;BME280;43247;52.828;-8.980;2023-01-10T05:26:35;99536.67;;;6.29;98.13